createdAt,value
2018-03-06T00:00:00.049Z,98419
2018-03-06T00:02:27.523Z,98406
2018-03-06T00:04:54.922Z,98414
2018-03-06T00:07:22.314Z,98414
2018-03-06T00:09:49.749Z,98411
2018-03-06T00:12:17.346Z,98397
2018-03-06T00:14:44.754Z,98397
2018-03-06T00:17:12.170Z,98392
2018-03-06T00:19:39.577Z,98396
2018-03-06T00:22:06.998Z,98389
2018-03-06T00:24:34.418Z,98397
2018-03-06T00:27:01.825Z,98391
2018-03-06T00:29:29.242Z,98373
2018-03-06T00:31:56.637Z,98378
2018-03-06T00:34:24.077Z,98379
2018-03-06T00:36:51.536Z,98370
2018-03-06T00:39:18.938Z,98366
2018-03-06T00:41:46.343Z,98361
2018-03-06T00:44:13.756Z,98358
2018-03-06T00:46:41.181Z,98362
2018-03-06T00:49:08.624Z,98349
2018-03-06T00:51:36.028Z,98345
2018-03-06T00:54:03.433Z,98343
2018-03-06T00:56:30.904Z,98358
2018-03-06T00:58:58.317Z,98362
2018-03-06T01:01:25.742Z,98366
2018-03-06T01:03:53.167Z,98373
2018-03-06T01:06:20.588Z,98367
2018-03-06T01:08:47.996Z,98361
2018-03-06T01:11:15.422Z,98351
2018-03-06T01:13:42.836Z,98351
2018-03-06T01:16:10.250Z,98344
2018-03-06T01:18:37.667Z,98337
2018-03-06T01:21:05.131Z,98338
2018-03-06T01:23:33.247Z,98341
2018-03-06T01:26:00.670Z,98345
2018-03-06T01:28:28.349Z,98339
2018-03-06T01:30:55.830Z,98333
2018-03-06T01:33:23.482Z,98319
2018-03-06T01:35:50.936Z,98325
2018-03-06T01:38:18.338Z,98315
2018-03-06T01:40:45.742Z,98308
2018-03-06T01:43:13.190Z,98306
2018-03-06T01:45:40.671Z,98302
2018-03-06T01:48:08.090Z,98295
2018-03-06T01:50:36.070Z,98286
2018-03-06T01:53:03.506Z,98295
2018-03-06T01:55:30.942Z,98298
2018-03-06T01:57:58.342Z,98300
2018-03-06T02:00:25.785Z,98288
2018-03-06T02:02:53.237Z,98291
2018-03-06T02:05:20.646Z,98281
2018-03-06T02:07:48.052Z,98281
2018-03-06T02:10:15.534Z,98284
2018-03-06T02:12:42.993Z,98292
2018-03-06T02:15:10.453Z,98291
2018-03-06T02:17:38.671Z,98294
2018-03-06T02:20:06.081Z,98293
2018-03-06T02:22:33.486Z,98289
2018-03-06T02:25:00.946Z,98294
2018-03-06T02:27:28.346Z,98286
2018-03-06T02:29:55.761Z,98281
2018-03-06T02:32:23.213Z,98290
2018-03-06T02:34:50.626Z,98290
2018-03-06T02:37:18.038Z,98301
2018-03-06T02:39:45.477Z,98300
2018-03-06T02:42:12.901Z,98295
2018-03-06T02:44:40.301Z,98288
2018-03-06T02:47:07.792Z,98277
2018-03-06T02:49:35.170Z,98280
2018-03-06T02:52:02.565Z,98283
2018-03-06T02:54:29.977Z,98285
2018-03-06T02:56:57.410Z,98283
2018-03-06T02:59:24.835Z,98282
2018-03-06T03:01:52.251Z,98269
2018-03-06T03:04:19.706Z,98271
2018-03-06T03:06:47.114Z,98266
2018-03-06T03:09:14.537Z,98260
2018-03-06T03:11:41.941Z,98258
2018-03-06T03:14:09.405Z,98248
2018-03-06T03:16:36.810Z,98251
2018-03-06T03:19:04.205Z,98245
2018-03-06T03:21:31.657Z,98249
2018-03-06T03:23:59.066Z,98249
2018-03-06T03:26:26.474Z,98257
2018-03-06T03:28:53.918Z,98254
2018-03-06T03:31:21.348Z,98260
2018-03-06T03:33:48.753Z,98255
2018-03-06T03:36:16.146Z,98248
2018-03-06T03:38:43.558Z,98249
2018-03-06T03:41:11.017Z,98257
2018-03-06T03:43:38.421Z,98262
2018-03-06T03:46:05.838Z,98255
2018-03-06T03:48:33.286Z,98252
2018-03-06T03:51:00.695Z,98245
2018-03-06T03:53:28.113Z,98241
2018-03-06T03:55:55.541Z,98247
2018-03-06T03:58:22.937Z,98251
2018-03-06T04:00:50.371Z,98254
2018-03-06T04:03:17.822Z,98255
2018-03-06T04:05:45.237Z,98253
2018-03-06T04:08:12.651Z,98251
2018-03-06T04:10:40.075Z,98254
2018-03-06T04:13:07.482Z,98248
2018-03-06T04:15:35.082Z,98243
2018-03-06T04:18:02.506Z,98248
2018-03-06T04:20:29.938Z,98241
2018-03-06T04:22:57.345Z,98239
2018-03-06T04:25:24.806Z,98237
2018-03-06T04:27:52.217Z,98241
2018-03-06T04:30:19.610Z,98242
2018-03-06T04:32:47.010Z,98242
2018-03-06T04:35:14.430Z,98245
2018-03-06T04:37:41.854Z,98248
2018-03-06T04:40:09.293Z,98253
2018-03-06T04:42:36.694Z,98262
2018-03-06T04:45:04.130Z,98261
2018-03-06T04:47:31.537Z,98253
2018-03-06T04:49:58.937Z,98251
2018-03-06T04:52:26.386Z,98249
2018-03-06T04:54:53.842Z,98244
2018-03-06T04:57:21.273Z,98244
2018-03-06T04:59:48.681Z,98247
2018-03-06T05:02:16.144Z,98246
2018-03-06T05:04:46.558Z,98247
2018-03-06T05:07:13.973Z,98244
2018-03-06T05:09:41.372Z,98251
2018-03-06T05:12:08.786Z,98265
2018-03-06T05:14:36.221Z,98266
2018-03-06T05:17:03.628Z,98269
2018-03-06T05:19:31.037Z,98272
2018-03-06T05:21:58.453Z,98274
2018-03-06T05:24:25.909Z,98267
2018-03-06T05:26:53.358Z,98262
2018-03-06T05:29:20.777Z,98269
2018-03-06T05:31:48.202Z,98264
2018-03-06T05:34:15.618Z,98255
2018-03-06T05:36:43.077Z,98261
2018-03-06T05:39:10.498Z,98271
2018-03-06T05:41:37.898Z,98273
2018-03-06T05:44:05.313Z,98267
2018-03-06T05:46:32.736Z,98270
2018-03-06T05:49:00.145Z,98266
2018-03-06T05:51:27.601Z,98280
2018-03-06T05:53:55.025Z,98282
2018-03-06T05:56:22.418Z,98273
2018-03-06T05:58:49.873Z,98279
2018-03-06T06:01:17.298Z,98279
2018-03-06T06:03:44.713Z,98273
2018-03-06T06:06:12.142Z,98277
2018-03-06T06:08:39.603Z,98292
2018-03-06T06:11:07.065Z,98296
2018-03-06T06:13:34.483Z,98300
2018-03-06T06:16:01.874Z,98298
2018-03-06T06:18:29.498Z,98286
2018-03-06T06:20:56.877Z,98289
2018-03-06T06:23:24.266Z,98288
2018-03-06T06:25:51.686Z,98288
2018-03-06T06:28:19.065Z,98283
2018-03-06T06:30:47.346Z,98289
2018-03-06T06:33:14.778Z,98284
2018-03-06T06:35:42.168Z,98274
2018-03-06T06:38:09.569Z,98271
2018-03-06T06:40:36.973Z,98277
2018-03-06T06:43:04.376Z,98266
2018-03-06T06:45:31.801Z,98261
2018-03-06T06:47:59.201Z,98263
2018-03-06T06:50:26.744Z,98261
2018-03-06T06:52:54.125Z,98254
2018-03-06T06:55:21.601Z,98267
2018-03-06T06:57:48.993Z,98274
2018-03-06T07:00:16.405Z,98298
2018-03-06T07:02:43.822Z,98298
2018-03-06T07:05:11.215Z,98296
2018-03-06T07:07:38.614Z,98298
2018-03-06T07:10:06.014Z,98287
2018-03-06T07:12:33.420Z,98296
2018-03-06T07:15:00.849Z,98303
2018-03-06T07:17:28.231Z,98306
2018-03-06T07:19:55.644Z,98304
2018-03-06T07:22:23.065Z,98304
2018-03-06T07:24:50.522Z,98304
2018-03-06T07:27:17.975Z,98304
2018-03-06T07:29:45.357Z,98296
2018-03-06T07:32:12.747Z,98296
2018-03-06T07:34:40.137Z,98300
2018-03-06T07:37:07.519Z,98297
2018-03-06T07:39:34.945Z,98302
2018-03-06T07:42:02.385Z,98310
2018-03-06T07:44:29.845Z,98308
2018-03-06T07:46:57.293Z,98316
2018-03-06T07:49:24.686Z,98322
2018-03-06T07:51:52.249Z,98314
2018-03-06T07:54:19.639Z,98306
2018-03-06T07:56:47.026Z,98305
2018-03-06T07:59:14.421Z,98301
2018-03-06T08:01:41.806Z,98307
2018-03-06T08:04:09.194Z,98302
2018-03-06T08:06:36.721Z,98305
2018-03-06T08:09:04.314Z,98316
2018-03-06T08:11:31.754Z,98312
2018-03-06T08:13:59.158Z,98297
2018-03-06T08:16:26.553Z,98295
2018-03-06T08:18:53.941Z,98290
2018-03-06T08:21:21.338Z,98289
2018-03-06T08:23:48.741Z,98280
2018-03-06T08:26:16.337Z,98274
2018-03-06T08:28:43.761Z,98282
2018-03-06T08:31:11.176Z,98282
2018-03-06T08:33:38.812Z,98273
2018-03-06T08:36:06.435Z,98278
2018-03-06T08:38:33.927Z,98278
2018-03-06T08:41:01.350Z,98271
2018-03-06T08:43:28.801Z,98272
2018-03-06T08:45:56.185Z,98269
2018-03-06T08:48:23.574Z,98267
2018-03-06T08:50:50.997Z,98267
2018-03-06T08:53:18.455Z,98262
2018-03-06T08:55:45.862Z,98254
2018-03-06T08:58:13.296Z,98238
2018-03-06T09:00:40.682Z,98235
2018-03-06T09:03:08.075Z,98222
2018-03-06T09:05:35.527Z,98213
2018-03-06T09:08:02.917Z,98211
2018-03-06T09:10:30.306Z,98211
2018-03-06T09:12:57.735Z,98212
2018-03-06T09:15:25.131Z,98218
2018-03-06T09:17:52.514Z,98219
2018-03-06T09:20:19.942Z,98222
2018-03-06T09:22:47.353Z,98216
2018-03-06T09:25:14.787Z,98219
2018-03-06T09:27:42.209Z,98224
2018-03-06T09:30:09.598Z,98236
2018-03-06T09:32:36.996Z,98238
2018-03-06T09:35:04.485Z,98240
2018-03-06T09:37:32.012Z,98258
2018-03-06T09:39:59.473Z,98265
2018-03-06T09:42:26.906Z,98272
2018-03-06T09:44:54.336Z,98274
2018-03-06T09:47:21.745Z,98283
2018-03-06T09:49:49.140Z,98274
2018-03-06T09:52:16.571Z,98260
2018-03-06T09:54:44.495Z,98253
2018-03-06T09:57:11.882Z,98259
2018-03-06T09:59:39.330Z,98259
2018-03-06T10:02:06.768Z,98244
2018-03-06T10:04:34.155Z,98242
2018-03-06T10:07:01.564Z,98238
2018-03-06T10:09:28.989Z,98234
2018-03-06T10:11:56.399Z,98227
2018-03-06T10:14:23.789Z,98229
2018-03-06T10:16:51.228Z,98246
2018-03-06T10:19:18.622Z,98244
2018-03-06T10:21:46.006Z,98259
2018-03-06T10:24:13.415Z,98263
2018-03-06T10:26:40.957Z,98265
2018-03-06T10:29:08.366Z,98262
2018-03-06T10:31:35.777Z,98261
2018-03-06T10:34:03.202Z,98247
2018-03-06T10:36:30.673Z,98260
2018-03-06T10:38:58.037Z,98262
2018-03-06T10:41:25.458Z,98258
2018-03-06T10:43:52.901Z,98248
2018-03-06T10:46:20.294Z,98252
2018-03-06T10:48:47.727Z,98250
2018-03-06T10:51:15.158Z,98251
2018-03-06T10:53:42.546Z,98254
2018-03-06T10:56:09.933Z,98243
2018-03-06T10:58:37.358Z,98238
2018-03-06T11:01:04.781Z,98239
2018-03-06T11:03:32.181Z,98232
2018-03-06T11:05:59.654Z,98238
2018-03-06T11:08:27.081Z,98230
2018-03-06T11:10:54.486Z,98231
2018-03-06T11:13:21.953Z,98222
2018-03-06T11:15:49.337Z,98220
2018-03-06T11:18:16.729Z,98217
2018-03-06T11:20:44.161Z,98219
2018-03-06T11:23:11.554Z,98210
2018-03-06T11:25:38.973Z,98196
2018-03-06T11:28:06.447Z,98177
2018-03-06T11:30:33.855Z,98169
2018-03-06T11:33:01.274Z,98157
2018-03-06T11:35:28.824Z,98151
2018-03-06T11:37:56.245Z,98149
2018-03-06T11:40:23.688Z,98156
2018-03-06T11:42:51.107Z,98145
2018-03-06T11:45:18.502Z,98145
2018-03-06T11:47:45.904Z,98149
2018-03-06T11:50:13.310Z,98163
2018-03-06T11:52:41.549Z,98164
2018-03-06T11:55:09.718Z,98157
2018-03-06T11:57:37.123Z,98164
2018-03-06T12:00:04.586Z,98171
2018-03-06T12:02:31.982Z,98159
2018-03-06T12:04:59.414Z,98169
2018-03-06T12:07:26.901Z,98185
2018-03-06T12:09:54.338Z,98171
2018-03-06T12:12:21.835Z,98170
2018-03-06T12:14:49.234Z,98159
2018-03-06T12:17:16.647Z,98157
2018-03-06T12:19:44.042Z,98168
2018-03-06T12:22:11.435Z,98188
2018-03-06T12:24:38.854Z,98181
2018-03-06T12:27:10.353Z,98145
2018-03-06T12:29:37.750Z,98151
2018-03-06T12:32:05.153Z,98171
2018-03-06T12:34:32.588Z,98152
2018-03-06T12:36:59.982Z,98124
2018-03-06T12:39:28.350Z,98127
2018-03-06T12:41:55.790Z,98133
2018-03-06T12:44:23.187Z,98149
2018-03-06T12:46:50.639Z,98159
2018-03-06T12:49:18.068Z,98157
2018-03-06T12:51:46.118Z,98163
2018-03-06T12:54:13.562Z,98165
2018-03-06T12:56:40.994Z,98158
2018-03-06T12:59:08.386Z,98162
2018-03-06T13:01:35.879Z,98177
2018-03-06T13:04:03.295Z,98174
2018-03-06T13:06:30.722Z,98171
2018-03-06T13:08:58.134Z,98161
2018-03-06T13:11:25.562Z,98148
2018-03-06T13:13:53.008Z,98134
2018-03-06T13:16:20.435Z,98132
2018-03-06T13:18:47.863Z,98119
2018-03-06T13:21:15.265Z,98127
2018-03-06T13:23:42.669Z,98125
2018-03-06T13:26:10.057Z,98151
2018-03-06T13:28:37.449Z,98157
2018-03-06T13:31:04.852Z,98159
2018-03-06T13:33:32.278Z,98157
2018-03-06T13:35:59.673Z,98157
2018-03-06T13:38:27.067Z,98157
2018-03-06T13:40:54.495Z,98145
2018-03-06T13:43:21.909Z,98140
2018-03-06T13:45:49.289Z,98126
2018-03-06T13:48:17.749Z,98128
2018-03-06T13:50:45.279Z,98130
2018-03-06T13:53:12.699Z,98137
2018-03-06T13:55:40.102Z,98143
2018-03-06T13:58:07.501Z,98141
2018-03-06T14:00:34.932Z,98136
2018-03-06T14:03:02.362Z,98130
2018-03-06T14:05:29.762Z,98136
2018-03-06T14:07:57.153Z,98144
2018-03-06T14:10:24.573Z,98150
2018-03-06T14:12:52.562Z,98147
2018-03-06T14:15:19.990Z,98143
2018-03-06T14:17:47.382Z,98141
2018-03-06T14:20:14.790Z,98148
2018-03-06T14:22:42.217Z,98160
2018-03-06T14:25:09.622Z,98163
2018-03-06T14:27:37.016Z,98155
2018-03-06T14:30:04.469Z,98158
2018-03-06T14:32:31.950Z,98176
2018-03-06T14:34:59.538Z,98192
2018-03-06T14:37:27.023Z,98189
2018-03-06T14:39:54.410Z,98194
2018-03-06T14:42:21.806Z,98192
2018-03-06T14:44:49.197Z,98181
2018-03-06T14:47:16.823Z,98167
2018-03-06T14:49:44.234Z,98162
2018-03-06T14:52:11.639Z,98164
2018-03-06T14:54:39.063Z,98150
2018-03-06T14:57:06.502Z,98144
2018-03-06T14:59:33.890Z,98147
2018-03-06T15:02:01.309Z,98149
2018-03-06T15:04:28.725Z,98154
2018-03-06T15:06:56.123Z,98154
2018-03-06T15:09:23.618Z,98145
2018-03-06T15:11:51.048Z,98137
2018-03-06T15:14:18.439Z,98141
2018-03-06T15:16:45.831Z,98138
2018-03-06T15:19:13.298Z,98136
2018-03-06T15:21:40.708Z,98135
2018-03-06T15:24:08.101Z,98125
2018-03-06T15:26:35.566Z,98123
2018-03-06T15:29:02.962Z,98119
2018-03-06T15:31:30.500Z,98121
2018-03-06T15:33:59.592Z,98123
2018-03-06T15:36:27.059Z,98128
2018-03-06T15:38:54.471Z,98114
2018-03-06T15:41:21.923Z,98121
2018-03-06T15:43:49.347Z,98134
2018-03-06T15:46:20.003Z,98137
2018-03-06T15:48:48.212Z,98144
2018-03-06T15:51:15.635Z,98138
2018-03-06T15:53:43.068Z,98143
2018-03-06T15:56:10.495Z,98151
2018-03-06T15:58:37.945Z,98159
2018-03-06T16:01:05.460Z,98163
2018-03-06T16:03:32.947Z,98154
2018-03-06T16:06:00.514Z,98155
2018-03-06T16:08:28.075Z,98161
2018-03-06T16:10:55.507Z,98156
2018-03-06T16:13:22.927Z,98159
2018-03-06T16:15:50.386Z,98172
2018-03-06T16:18:17.807Z,98197
2018-03-06T16:20:45.235Z,98199
2018-03-06T16:23:12.785Z,98187
2018-03-06T16:25:40.223Z,98180
2018-03-06T16:28:07.688Z,98173
2018-03-06T16:30:35.368Z,98178
2018-03-06T16:33:02.787Z,98170
2018-03-06T16:35:30.222Z,98156
2018-03-06T16:37:57.751Z,98149
2018-03-06T16:40:25.237Z,98148
2018-03-06T16:42:52.740Z,98161
2018-03-06T16:45:20.173Z,98173
2018-03-06T16:47:47.642Z,98175
2018-03-06T16:50:15.086Z,98177
2018-03-06T16:52:42.511Z,98174
2018-03-06T16:55:10.039Z,98168
2018-03-06T16:57:37.500Z,98157
2018-03-06T17:00:04.960Z,98152
2018-03-06T17:02:32.602Z,98161
2018-03-06T17:05:00.068Z,98177
2018-03-06T17:07:27.533Z,98168
2018-03-06T17:09:54.987Z,98172
2018-03-06T17:12:22.427Z,98181
2018-03-06T17:14:49.855Z,98188
2018-03-06T17:17:17.330Z,98178
2018-03-06T17:19:44.752Z,98190
2018-03-06T17:22:12.221Z,98185
2018-03-06T17:24:39.656Z,98182
2018-03-06T17:27:07.120Z,98179
2018-03-06T17:29:34.551Z,98177
2018-03-06T17:32:01.988Z,98178
2018-03-06T17:34:29.475Z,98176
2018-03-06T17:36:56.937Z,98168
2018-03-06T17:39:24.360Z,98170
2018-03-06T17:41:51.815Z,98191
2018-03-06T17:44:19.255Z,98202
2018-03-06T17:46:46.738Z,98217
2018-03-06T17:49:14.173Z,98218
2018-03-06T17:51:41.643Z,98218
2018-03-06T17:54:09.128Z,98206
2018-03-06T17:56:36.564Z,98201
2018-03-06T17:59:04.068Z,98194
2018-03-06T18:01:31.601Z,98209
2018-03-06T18:03:59.112Z,98200
2018-03-06T18:06:26.551Z,98196
2018-03-06T18:08:55.688Z,98189
2018-03-06T18:11:23.155Z,98201
2018-03-06T18:13:50.596Z,98198
2018-03-06T18:16:18.077Z,98197
2018-03-06T18:18:45.535Z,98190
2018-03-06T18:21:13.015Z,98188
2018-03-06T18:23:40.473Z,98171
2018-03-06T18:26:07.953Z,111781
2018-03-06T18:28:35.481Z,111781
2018-03-06T18:31:02.969Z,111781
2018-03-06T18:33:30.487Z,111781
2018-03-06T18:35:57.953Z,111781
2018-03-06T18:38:25.415Z,111781
2018-03-06T18:40:52.880Z,111781
2018-03-06T18:43:20.370Z,111781
2018-03-06T18:45:47.819Z,111781
2018-03-06T18:48:15.285Z,111781
2018-03-06T18:50:54.427Z,111781
2018-03-06T18:53:22.167Z,111781
2018-03-06T18:55:49.628Z,111781
2018-03-06T18:58:17.087Z,111781
2018-03-06T19:01:05.143Z,111781
2018-03-06T19:03:44.439Z,111781
